sensor_id;sensor_type;location;lat;lon;timestamp;P1;durP1;ratioP1;P2;durP2;ratioP2
52620;SDS011;38515;53.160;6.990;2023-11-19T00:00:45;607.67;;;570.67;;
52620;SDS011;38515;53.160;6.990;2023-11-19T00:03:11;176.40;;;159.73;;
52620;SDS011;38515;53.160;6.990;2023-11-19T00:05:38;544.22;;;513.67;;
52620;SDS011;38515;53.160;6.990;2023-11-19T00:08:04;274.20;;;188.23;;
52620;SDS011;38515;53.160;6.990;2023-11-19T00:10:31;200.48;;;160.00;;
52620;SDS011;38515;53.160;6.990;2023-11-19T00:12:57;140.02;;;126.70;;
52620;SDS011;38515;53.160;6.990;2023-11-19T00:15:23;179.40;;;149.95;;
52620;SDS011;38515;53.160;6.990;2023-11-19T00:17:49;204.98;;;167.82;;
52620;SDS011;38515;53.160;6.990;2023-11-19T00:20:16;198.98;;;176.45;;
52620;SDS011;38515;53.160;6.990;2023-11-19T00:22:47;170.38;;;154.45;;
52620;SDS011;38515;53.160;6.990;2023-11-19T00:25:19;180.95;;;147.48;;
52620;SDS011;38515;53.160;6.990;2023-11-19T00:27:50;235.98;;;170.85;;
52620;SDS011;38515;53.160;6.990;2023-11-19T00:30:18;206.65;;;162.68;;
52620;SDS011;38515;53.160;6.990;2023-11-19T00:32:44;192.55;;;154.02;;
52620;SDS011;38515;53.160;6.990;2023-11-19T00:35:10;176.82;;;157.93;;
52620;SDS011;38515;53.160;6.990;2023-11-19T00:37:39;171.95;;;154.38;;
52620;SDS011;38515;53.160;6.990;2023-11-19T00:40:05;182.27;;;163.15;;
52620;SDS011;38515;53.160;6.990;2023-11-19T00:42:31;272.40;;;171.02;;
52620;SDS011;38515;53.160;6.990;2023-11-19T00:44:57;171.77;;;144.85;;
52620;SDS011;38515;53.160;6.990;2023-11-19T00:47:23;160.90;;;145.57;;
52620;SDS011;38515;53.160;6.990;2023-11-19T00:49:49;146.52;;;130.40;;
52620;SDS011;38515;53.160;6.990;2023-11-19T00:52:15;166.73;;;151.90;;
52620;SDS011;38515;53.160;6.990;2023-11-19T00:54:42;175.65;;;159.77;;
52620;SDS011;38515;53.160;6.990;2023-11-19T00:57:08;183.93;;;165.10;;
52620;SDS011;38515;53.160;6.990;2023-11-19T00:59:34;199.40;;;179.77;;
52620;SDS011;38515;53.160;6.990;2023-11-19T01:02:00;190.27;;;168.45;;
52620;SDS011;38515;53.160;6.990;2023-11-19T01:04:34;188.93;;;163.35;;
52620;SDS011;38515;53.160;6.990;2023-11-19T01:07:01;186.82;;;167.55;;
52620;SDS011;38515;53.160;6.990;2023-11-19T01:09:29;163.88;;;146.25;;
52620;SDS011;38515;53.160;6.990;2023-11-19T01:11:57;251.10;;;174.13;;
52620;SDS011;38515;53.160;6.990;2023-11-19T01:14:25;162.77;;;144.77;;
52620;SDS011;38515;53.160;6.990;2023-11-19T01:16:51;185.60;;;152.13;;
52620;SDS011;38515;53.160;6.990;2023-11-19T01:19:19;155.43;;;140.10;;
52620;SDS011;38515;53.160;6.990;2023-11-19T01:21:45;144.52;;;129.35;;
52620;SDS011;38515;53.160;6.990;2023-11-19T01:24:11;146.02;;;132.95;;
52620;SDS011;38515;53.160;6.990;2023-11-19T01:26:38;155.48;;;139.70;;
52620;SDS011;38515;53.160;6.990;2023-11-19T01:29:04;164.40;;;147.40;;
52620;SDS011;38515;53.160;6.990;2023-11-19T01:31:30;150.90;;;137.15;;
52620;SDS011;38515;53.160;6.990;2023-11-19T01:33:59;152.35;;;139.15;;
52620;SDS011;38515;53.160;6.990;2023-11-19T01:36:24;140.07;;;126.93;;
52620;SDS011;38515;53.160;6.990;2023-11-19T01:38:50;136.23;;;124.28;;
52620;SDS011;38515;53.160;6.990;2023-11-19T01:41:16;131.60;;;119.47;;
52620;SDS011;38515;53.160;6.990;2023-11-19T01:43:42;147.88;;;132.80;;
52620;SDS011;38515;53.160;6.990;2023-11-19T01:46:08;139.02;;;128.00;;
52620;SDS011;38515;53.160;6.990;2023-11-19T01:48:39;121.65;;;111.40;;
52620;SDS011;38515;53.160;6.990;2023-11-19T01:51:08;118.82;;;106.88;;
52620;SDS011;38515;53.160;6.990;2023-11-19T01:53:35;105.80;;;95.50;;
52620;SDS011;38515;53.160;6.990;2023-11-19T01:56:03;109.70;;;98.93;;
52620;SDS011;38515;53.160;6.990;2023-11-19T01:58:30;120.30;;;110.80;;
52620;SDS011;38515;53.160;6.990;2023-11-19T02:00:56;120.25;;;109.97;;
52620;SDS011;38515;53.160;6.990;2023-11-19T02:03:23;122.10;;;112.63;;
52620;SDS011;38515;53.160;6.990;2023-11-19T02:05:51;152.05;;;139.68;;
52620;SDS011;38515;53.160;6.990;2023-11-19T02:08:18;128.25;;;117.60;;
52620;SDS011;38515;53.160;6.990;2023-11-19T02:10:45;144.68;;;133.70;;
52620;SDS011;38515;53.160;6.990;2023-11-19T02:13:11;139.07;;;127.95;;
52620;SDS011;38515;53.160;6.990;2023-11-19T02:15:39;151.88;;;140.38;;
52620;SDS011;38515;53.160;6.990;2023-11-19T02:18:24;148.73;;;138.45;;
52620;SDS011;38515;53.160;6.990;2023-11-19T02:20:54;170.85;;;158.77;;
52620;SDS011;38515;53.160;6.990;2023-11-19T02:23:25;192.32;;;180.60;;
52620;SDS011;38515;53.160;6.990;2023-11-19T02:28:19;174.95;;;163.20;;
52620;SDS011;38515;53.160;6.990;2023-11-19T02:30:45;178.70;;;167.20;;
52620;SDS011;38515;53.160;6.990;2023-11-19T02:33:10;205.90;;;192.50;;
52620;SDS011;38515;53.160;6.990;2023-11-19T02:35:38;208.70;;;194.85;;
52620;SDS011;38515;53.160;6.990;2023-11-19T02:38:05;179.25;;;166.90;;
52620;SDS011;38515;53.160;6.990;2023-11-19T02:40:32;178.88;;;167.00;;
52620;SDS011;38515;53.160;6.990;2023-11-19T02:42:58;179.63;;;167.77;;
52620;SDS011;38515;53.160;6.990;2023-11-19T02:45:24;165.02;;;153.27;;
52620;SDS011;38515;53.160;6.990;2023-11-19T02:47:51;162.48;;;152.20;;
52620;SDS011;38515;53.160;6.990;2023-11-19T02:50:21;175.50;;;164.70;;
52620;SDS011;38515;53.160;6.990;2023-11-19T02:52:56;184.32;;;172.30;;
52620;SDS011;38515;53.160;6.990;2023-11-19T02:55:22;186.05;;;174.48;;
52620;SDS011;38515;53.160;6.990;2023-11-19T02:57:49;160.30;;;150.50;;
52620;SDS011;38515;53.160;6.990;2023-11-19T03:00:18;171.07;;;160.30;;
52620;SDS011;38515;53.160;6.990;2023-11-19T03:02:49;168.48;;;158.60;;
52620;SDS011;38515;53.160;6.990;2023-11-19T03:05:23;176.70;;;165.20;;
52620;SDS011;38515;53.160;6.990;2023-11-19T03:07:50;164.30;;;153.43;;
52620;SDS011;38515;53.160;6.990;2023-11-19T03:10:16;166.60;;;155.45;;
52620;SDS011;38515;53.160;6.990;2023-11-19T03:12:42;145.32;;;134.80;;
52620;SDS011;38515;53.160;6.990;2023-11-19T03:15:09;150.63;;;140.57;;
52620;SDS011;38515;53.160;6.990;2023-11-19T03:17:36;133.18;;;124.05;;
52620;SDS011;38515;53.160;6.990;2023-11-19T03:20:05;158.18;;;147.75;;
52620;SDS011;38515;53.160;6.990;2023-11-19T03:22:36;137.00;;;127.88;;
52620;SDS011;38515;53.160;6.990;2023-11-19T03:25:02;131.07;;;121.32;;
52620;SDS011;38515;53.160;6.990;2023-11-19T03:27:28;109.65;;;101.20;;
52620;SDS011;38515;53.160;6.990;2023-11-19T03:29:53;115.57;;;106.35;;
52620;SDS011;38515;53.160;6.990;2023-11-19T03:32:19;116.00;;;107.20;;
52620;SDS011;38515;53.160;6.990;2023-11-19T03:34:45;105.10;;;96.82;;
52620;SDS011;38515;53.160;6.990;2023-11-19T03:37:11;105.22;;;96.20;;
52620;SDS011;38515;53.160;6.990;2023-11-19T03:39:38;116.47;;;108.03;;
52620;SDS011;38515;53.160;6.990;2023-11-19T03:42:04;127.82;;;117.60;;
52620;SDS011;38515;53.160;6.990;2023-11-19T03:44:30;104.07;;;96.35;;
52620;SDS011;38515;53.160;6.990;2023-11-19T03:46:55;111.75;;;102.88;;
52620;SDS011;38515;53.160;6.990;2023-11-19T03:49:21;107.60;;;100.35;;
52620;SDS011;38515;53.160;6.990;2023-11-19T03:51:49;98.75;;;90.50;;
52620;SDS011;38515;53.160;6.990;2023-11-19T03:54:15;120.57;;;112.35;;
52620;SDS011;38515;53.160;6.990;2023-11-19T03:56:40;107.80;;;99.28;;
52620;SDS011;38515;53.160;6.990;2023-11-19T03:59:06;109.53;;;100.32;;
52620;SDS011;38515;53.160;6.990;2023-11-19T04:01:33;111.03;;;102.53;;
52620;SDS011;38515;53.160;6.990;2023-11-19T04:03:58;114.07;;;105.80;;
52620;SDS011;38515;53.160;6.990;2023-11-19T04:06:25;139.48;;;130.20;;
52620;SDS011;38515;53.160;6.990;2023-11-19T04:08:51;118.88;;;109.47;;
52620;SDS011;38515;53.160;6.990;2023-11-19T04:11:17;122.20;;;114.15;;
52620;SDS011;38515;53.160;6.990;2023-11-19T04:13:43;149.52;;;141.00;;
52620;SDS011;38515;53.160;6.990;2023-11-19T04:16:09;144.82;;;134.20;;
52620;SDS011;38515;53.160;6.990;2023-11-19T04:18:35;169.60;;;158.45;;
52620;SDS011;38515;53.160;6.990;2023-11-19T04:21:01;154.00;;;144.52;;
52620;SDS011;38515;53.160;6.990;2023-11-19T04:23:26;148.50;;;138.65;;
52620;SDS011;38515;53.160;6.990;2023-11-19T04:25:52;149.88;;;140.30;;
52620;SDS011;38515;53.160;6.990;2023-11-19T04:28:18;169.90;;;158.95;;
52620;SDS011;38515;53.160;6.990;2023-11-19T04:30:44;182.98;;;172.18;;
52620;SDS011;38515;53.160;6.990;2023-11-19T04:33:10;128.32;;;118.18;;
52620;SDS011;38515;53.160;6.990;2023-11-19T04:35:36;100.82;;;93.00;;
52620;SDS011;38515;53.160;6.990;2023-11-19T04:38:02;109.90;;;102.03;;
52620;SDS011;38515;53.160;6.990;2023-11-19T04:40:28;116.13;;;107.53;;
52620;SDS011;38515;53.160;6.990;2023-11-19T04:42:53;111.88;;;103.78;;
52620;SDS011;38515;53.160;6.990;2023-11-19T04:45:19;101.88;;;94.00;;
52620;SDS011;38515;53.160;6.990;2023-11-19T04:47:45;109.05;;;100.45;;
52620;SDS011;38515;53.160;6.990;2023-11-19T04:50:11;109.72;;;102.13;;
52620;SDS011;38515;53.160;6.990;2023-11-19T04:52:37;122.22;;;114.43;;
52620;SDS011;38515;53.160;6.990;2023-11-19T04:55:07;107.93;;;100.18;;
52620;SDS011;38515;53.160;6.990;2023-11-19T04:57:36;122.43;;;113.75;;
52620;SDS011;38515;53.160;6.990;2023-11-19T05:00:02;116.65;;;108.35;;
52620;SDS011;38515;53.160;6.990;2023-11-19T05:02:30;114.13;;;104.88;;
52620;SDS011;38515;53.160;6.990;2023-11-19T05:04:56;109.15;;;101.00;;
52620;SDS011;38515;53.160;6.990;2023-11-19T05:07:22;95.07;;;87.22;;
52620;SDS011;38515;53.160;6.990;2023-11-19T05:09:48;95.50;;;87.28;;
52620;SDS011;38515;53.160;6.990;2023-11-19T05:12:14;103.88;;;96.18;;
52620;SDS011;38515;53.160;6.990;2023-11-19T05:14:40;112.65;;;104.18;;
52620;SDS011;38515;53.160;6.990;2023-11-19T05:17:06;104.53;;;96.28;;
52620;SDS011;38515;53.160;6.990;2023-11-19T05:19:33;112.70;;;103.65;;
52620;SDS011;38515;53.160;6.990;2023-11-19T05:21:58;114.13;;;105.60;;
52620;SDS011;38515;53.160;6.990;2023-11-19T05:24:24;113.30;;;103.40;;
52620;SDS011;38515;53.160;6.990;2023-11-19T05:26:50;112.88;;;104.28;;
52620;SDS011;38515;53.160;6.990;2023-11-19T05:29:17;106.35;;;97.60;;
52620;SDS011;38515;53.160;6.990;2023-11-19T05:31:43;104.65;;;96.75;;
52620;SDS011;38515;53.160;6.990;2023-11-19T05:34:08;106.55;;;97.97;;
52620;SDS011;38515;53.160;6.990;2023-11-19T05:36:34;112.80;;;102.97;;
52620;SDS011;38515;53.160;6.990;2023-11-19T05:39:00;122.28;;;112.43;;
52620;SDS011;38515;53.160;6.990;2023-11-19T05:41:26;113.25;;;104.45;;
52620;SDS011;38515;53.160;6.990;2023-11-19T05:43:52;102.25;;;94.65;;
52620;SDS011;38515;53.160;6.990;2023-11-19T05:46:17;104.60;;;94.10;;
52620;SDS011;38515;53.160;6.990;2023-11-19T05:48:43;97.85;;;89.57;;
52620;SDS011;38515;53.160;6.990;2023-11-19T05:51:11;96.68;;;88.28;;
52620;SDS011;38515;53.160;6.990;2023-11-19T05:53:45;93.35;;;84.95;;
52620;SDS011;38515;53.160;6.990;2023-11-19T05:56:20;100.28;;;92.05;;
52620;SDS011;38515;53.160;6.990;2023-11-19T05:58:47;92.60;;;84.47;;
52620;SDS011;38515;53.160;6.990;2023-11-19T06:01:16;101.10;;;92.88;;
52620;SDS011;38515;53.160;6.990;2023-11-19T06:03:42;93.82;;;85.53;;
52620;SDS011;38515;53.160;6.990;2023-11-19T06:06:08;93.00;;;85.93;;
52620;SDS011;38515;53.160;6.990;2023-11-19T06:08:34;99.28;;;91.90;;
52620;SDS011;38515;53.160;6.990;2023-11-19T06:11:01;110.78;;;103.07;;
52620;SDS011;38515;53.160;6.990;2023-11-19T06:13:35;110.72;;;101.32;;
52620;SDS011;38515;53.160;6.990;2023-11-19T06:16:04;110.05;;;101.80;;
52620;SDS011;38515;53.160;6.990;2023-11-19T06:18:30;136.25;;;125.88;;
52620;SDS011;38515;53.160;6.990;2023-11-19T06:20:56;119.18;;;109.68;;
52620;SDS011;38515;53.160;6.990;2023-11-19T06:23:23;133.15;;;123.72;;
52620;SDS011;38515;53.160;6.990;2023-11-19T06:25:51;133.10;;;123.85;;
52620;SDS011;38515;53.160;6.990;2023-11-19T06:28:18;119.95;;;110.82;;
52620;SDS011;38515;53.160;6.990;2023-11-19T06:30:44;119.05;;;109.65;;
52620;SDS011;38515;53.160;6.990;2023-11-19T06:33:14;120.15;;;110.53;;
52620;SDS011;38515;53.160;6.990;2023-11-19T06:35:40;125.63;;;116.78;;
52620;SDS011;38515;53.160;6.990;2023-11-19T06:38:06;135.18;;;125.32;;
52620;SDS011;38515;53.160;6.990;2023-11-19T06:40:35;141.60;;;130.95;;
52620;SDS011;38515;53.160;6.990;2023-11-19T06:43:00;121.60;;;111.32;;
52620;SDS011;38515;53.160;6.990;2023-11-19T06:45:28;136.77;;;125.72;;
52620;SDS011;38515;53.160;6.990;2023-11-19T06:47:55;122.65;;;112.80;;
52620;SDS011;38515;53.160;6.990;2023-11-19T06:50:21;121.32;;;111.82;;
52620;SDS011;38515;53.160;6.990;2023-11-19T06:52:47;124.32;;;115.65;;
52620;SDS011;38515;53.160;6.990;2023-11-19T06:55:13;125.93;;;115.57;;
52620;SDS011;38515;53.160;6.990;2023-11-19T06:57:39;139.68;;;129.65;;
52620;SDS011;38515;53.160;6.990;2023-11-19T07:00:05;141.00;;;130.30;;
52620;SDS011;38515;53.160;6.990;2023-11-19T07:02:31;137.95;;;126.40;;
52620;SDS011;38515;53.160;6.990;2023-11-19T07:04:57;143.60;;;131.60;;
52620;SDS011;38515;53.160;6.990;2023-11-19T07:07:23;154.32;;;143.52;;
52620;SDS011;38515;53.160;6.990;2023-11-19T07:09:49;144.32;;;133.85;;
52620;SDS011;38515;53.160;6.990;2023-11-19T07:12:15;48.90;;;41.50;;
52620;SDS011;38515;53.160;6.990;2023-11-19T07:14:41;40.60;;;33.65;;
52620;SDS011;38515;53.160;6.990;2023-11-19T07:17:07;33.70;;;29.02;;
52620;SDS011;38515;53.160;6.990;2023-11-19T07:19:35;37.40;;;33.50;;
52620;SDS011;38515;53.160;6.990;2023-11-19T07:22:03;41.78;;;37.85;;
52620;SDS011;38515;53.160;6.990;2023-11-19T07:24:29;40.20;;;36.65;;
52620;SDS011;38515;53.160;6.990;2023-11-19T07:26:55;48.13;;;43.13;;
52620;SDS011;38515;53.160;6.990;2023-11-19T07:29:24;39.38;;;35.85;;
52620;SDS011;38515;53.160;6.990;2023-11-19T07:31:50;40.88;;;36.17;;
52620;SDS011;38515;53.160;6.990;2023-11-19T07:34:16;39.33;;;35.50;;
52620;SDS011;38515;53.160;6.990;2023-11-19T07:36:42;37.90;;;31.15;;
52620;SDS011;38515;53.160;6.990;2023-11-19T07:39:08;43.70;;;32.47;;
52620;SDS011;38515;53.160;6.990;2023-11-19T07:41:33;40.88;;;31.83;;
52620;SDS011;38515;53.160;6.990;2023-11-19T07:44:00;40.45;;;36.85;;
52620;SDS011;38515;53.160;6.990;2023-11-19T07:46:26;46.33;;;34.72;;
52620;SDS011;38515;53.160;6.990;2023-11-19T07:48:52;56.38;;;32.78;;
52620;SDS011;38515;53.160;6.990;2023-11-19T07:51:18;51.40;;;42.75;;
52620;SDS011;38515;53.160;6.990;2023-11-19T07:53:44;42.60;;;38.38;;
52620;SDS011;38515;53.160;6.990;2023-11-19T07:56:10;42.05;;;37.88;;
52620;SDS011;38515;53.160;6.990;2023-11-19T07:58:36;44.42;;;38.25;;
52620;SDS011;38515;53.160;6.990;2023-11-19T08:01:02;37.03;;;33.75;;
52620;SDS011;38515;53.160;6.990;2023-11-19T08:03:28;106.78;;;98.70;;
52620;SDS011;38515;53.160;6.990;2023-11-19T08:05:57;100.88;;;93.88;;
52620;SDS011;38515;53.160;6.990;2023-11-19T08:08:23;112.40;;;104.68;;
52620;SDS011;38515;53.160;6.990;2023-11-19T08:10:49;106.53;;;98.03;;
52620;SDS011;38515;53.160;6.990;2023-11-19T08:13:19;107.50;;;98.80;;
52620;SDS011;38515;53.160;6.990;2023-11-19T08:15:45;114.68;;;106.50;;
52620;SDS011;38515;53.160;6.990;2023-11-19T08:18:12;118.05;;;107.72;;
52620;SDS011;38515;53.160;6.990;2023-11-19T08:20:38;113.47;;;105.25;;
52620;SDS011;38515;53.160;6.990;2023-11-19T08:23:04;99.70;;;91.57;;
52620;SDS011;38515;53.160;6.990;2023-11-19T08:25:30;122.00;;;113.57;;
52620;SDS011;38515;53.160;6.990;2023-11-19T08:27:57;113.38;;;104.15;;
52620;SDS011;38515;53.160;6.990;2023-11-19T08:30:23;111.70;;;103.68;;
52620;SDS011;38515;53.160;6.990;2023-11-19T08:32:48;111.95;;;103.38;;
52620;SDS011;38515;53.160;6.990;2023-11-19T08:35:14;127.00;;;117.90;;
52620;SDS011;38515;53.160;6.990;2023-11-19T08:37:41;105.75;;;97.18;;
52620;SDS011;38515;53.160;6.990;2023-11-19T08:40:07;105.70;;;96.82;;
52620;SDS011;38515;53.160;6.990;2023-11-19T08:42:36;106.63;;;98.95;;
52620;SDS011;38515;53.160;6.990;2023-11-19T08:45:04;111.78;;;103.38;;
52620;SDS011;38515;53.160;6.990;2023-11-19T08:47:30;104.05;;;96.28;;
52620;SDS011;38515;53.160;6.990;2023-11-19T08:49:56;118.93;;;109.78;;
52620;SDS011;38515;53.160;6.990;2023-11-19T08:52:22;111.72;;;103.10;;
52620;SDS011;38515;53.160;6.990;2023-11-19T08:54:51;110.50;;;101.45;;
52620;SDS011;38515;53.160;6.990;2023-11-19T08:57:16;125.13;;;115.10;;
52620;SDS011;38515;53.160;6.990;2023-11-19T08:59:42;106.10;;;97.93;;
52620;SDS011;38515;53.160;6.990;2023-11-19T09:02:08;113.55;;;103.85;;
52620;SDS011;38515;53.160;6.990;2023-11-19T09:04:34;104.97;;;96.55;;
52620;SDS011;38515;53.160;6.990;2023-11-19T09:07:01;118.15;;;108.22;;
52620;SDS011;38515;53.160;6.990;2023-11-19T09:09:28;104.47;;;95.10;;
52620;SDS011;38515;53.160;6.990;2023-11-19T09:11:58;107.65;;;99.55;;
52620;SDS011;38515;53.160;6.990;2023-11-19T09:14:24;110.70;;;102.82;;
52620;SDS011;38515;53.160;6.990;2023-11-19T09:16:51;111.72;;;102.80;;
52620;SDS011;38515;53.160;6.990;2023-11-19T09:19:18;107.70;;;99.03;;
52620;SDS011;38515;53.160;6.990;2023-11-19T09:21:43;109.68;;;100.18;;
52620;SDS011;38515;53.160;6.990;2023-11-19T09:24:09;113.68;;;103.78;;
52620;SDS011;38515;53.160;6.990;2023-11-19T09:26:35;109.72;;;101.50;;
52620;SDS011;38515;53.160;6.990;2023-11-19T09:29:01;111.43;;;102.75;;
52620;SDS011;38515;53.160;6.990;2023-11-19T09:31:27;112.75;;;103.32;;
52620;SDS011;38515;53.160;6.990;2023-11-19T09:33:53;116.57;;;107.50;;
52620;SDS011;38515;53.160;6.990;2023-11-19T09:36:19;111.28;;;101.18;;
52620;SDS011;38515;53.160;6.990;2023-11-19T09:38:45;112.40;;;103.60;;
52620;SDS011;38515;53.160;6.990;2023-11-19T09:41:11;115.57;;;106.70;;
52620;SDS011;38515;53.160;6.990;2023-11-19T09:43:42;114.07;;;104.25;;
52620;SDS011;38515;53.160;6.990;2023-11-19T09:46:12;139.60;;;129.68;;
52620;SDS011;38515;53.160;6.990;2023-11-19T09:48:40;108.63;;;100.53;;
52620;SDS011;38515;53.160;6.990;2023-11-19T09:51:07;122.43;;;112.50;;
52620;SDS011;38515;53.160;6.990;2023-11-19T09:53:35;137.50;;;127.43;;
52620;SDS011;38515;53.160;6.990;2023-11-19T09:56:05;129.48;;;119.97;;
52620;SDS011;38515;53.160;6.990;2023-11-19T09:58:31;140.10;;;129.57;;
52620;SDS011;38515;53.160;6.990;2023-11-19T10:00:58;120.22;;;111.82;;
52620;SDS011;38515;53.160;6.990;2023-11-19T10:03:35;136.98;;;127.63;;
52620;SDS011;38515;53.160;6.990;2023-11-19T10:06:03;137.75;;;128.40;;
52620;SDS011;38515;53.160;6.990;2023-11-19T10:08:31;112.88;;;104.90;;
52620;SDS011;38515;53.160;6.990;2023-11-19T10:10:57;143.73;;;133.50;;
52620;SDS011;38515;53.160;6.990;2023-11-19T10:13:30;132.18;;;122.43;;
52620;SDS011;38515;53.160;6.990;2023-11-19T10:15:56;62.95;;;58.05;;
52620;SDS011;38515;53.160;6.990;2023-11-19T10:18:26;110.22;;;101.57;;
52620;SDS011;38515;53.160;6.990;2023-11-19T10:20:52;117.82;;;108.80;;
52620;SDS011;38515;53.160;6.990;2023-11-19T10:23:20;109.55;;;100.63;;
52620;SDS011;38515;53.160;6.990;2023-11-19T10:25:46;124.95;;;115.65;;
52620;SDS011;38515;53.160;6.990;2023-11-19T10:28:14;92.30;;;85.05;;
52620;SDS011;38515;53.160;6.990;2023-11-19T10:30:41;108.90;;;100.18;;
52620;SDS011;38515;53.160;6.990;2023-11-19T10:33:08;111.22;;;102.10;;
52620;SDS011;38515;53.160;6.990;2023-11-19T10:35:36;114.82;;;105.15;;
52620;SDS011;38515;53.160;6.990;2023-11-19T10:38:18;119.57;;;110.82;;
52620;SDS011;38515;53.160;6.990;2023-11-19T10:40:44;120.25;;;111.00;;
52620;SDS011;38515;53.160;6.990;2023-11-19T10:43:10;131.38;;;121.55;;
52620;SDS011;38515;53.160;6.990;2023-11-19T10:45:37;112.25;;;102.50;;
52620;SDS011;38515;53.160;6.990;2023-11-19T10:48:04;110.40;;;101.60;;
52620;SDS011;38515;53.160;6.990;2023-11-19T10:50:33;123.93;;;113.25;;
52620;SDS011;38515;53.160;6.990;2023-11-19T10:53:01;131.55;;;122.07;;
52620;SDS011;38515;53.160;6.990;2023-11-19T10:55:29;125.15;;;115.60;;
52620;SDS011;38515;53.160;6.990;2023-11-19T10:58:00;121.30;;;111.10;;
52620;SDS011;38515;53.160;6.990;2023-11-19T11:00:34;136.10;;;125.53;;
52620;SDS011;38515;53.160;6.990;2023-11-19T11:03:11;105.15;;;96.47;;
52620;SDS011;38515;53.160;6.990;2023-11-19T11:05:40;102.28;;;94.03;;
52620;SDS011;38515;53.160;6.990;2023-11-19T11:08:07;108.03;;;99.20;;
52620;SDS011;38515;53.160;6.990;2023-11-19T11:10:45;135.13;;;126.47;;
52620;SDS011;38515;53.160;6.990;2023-11-19T11:13:11;133.68;;;125.35;;
52620;SDS011;38515;53.160;6.990;2023-11-19T11:15:39;123.60;;;113.68;;
52620;SDS011;38515;53.160;6.990;2023-11-19T11:18:08;118.15;;;109.65;;
52620;SDS011;38515;53.160;6.990;2023-11-19T11:20:34;135.73;;;126.43;;
52620;SDS011;38515;53.160;6.990;2023-11-19T11:36:25;123.00;;;113.55;;
52620;SDS011;38515;53.160;6.990;2023-11-19T11:38:52;126.95;;;118.30;;
52620;SDS011;38515;53.160;6.990;2023-11-19T11:41:23;115.93;;;107.43;;
52620;SDS011;38515;53.160;6.990;2023-11-19T11:43:51;111.15;;;102.68;;
52620;SDS011;38515;53.160;6.990;2023-11-19T11:47:06;120.65;;;112.00;;
52620;SDS011;38515;53.160;6.990;2023-11-19T11:49:06;123.70;;;115.65;;
52620;SDS011;38515;53.160;6.990;2023-11-19T11:57:10;123.88;;;115.32;;
52620;SDS011;38515;53.160;6.990;2023-11-19T12:02:19;113.78;;;105.15;;
52620;SDS011;38515;53.160;6.990;2023-11-19T12:04:50;115.60;;;107.03;;
52620;SDS011;38515;53.160;6.990;2023-11-19T12:07:21;127.15;;;117.75;;
52620;SDS011;38515;53.160;6.990;2023-11-19T12:09:51;120.70;;;111.32;;
52620;SDS011;38515;53.160;6.990;2023-11-19T12:12:22;115.32;;;106.93;;
52620;SDS011;38515;53.160;6.990;2023-11-19T12:15:07;122.93;;;113.90;;
52620;SDS011;38515;53.160;6.990;2023-11-19T12:17:42;111.18;;;102.85;;
52620;SDS011;38515;53.160;6.990;2023-11-19T12:20:14;116.78;;;107.88;;
52620;SDS011;38515;53.160;6.990;2023-11-19T12:22:42;115.82;;;107.43;;
52620;SDS011;38515;53.160;6.990;2023-11-19T12:25:10;126.25;;;118.03;;
52620;SDS011;38515;53.160;6.990;2023-11-19T12:27:41;116.78;;;107.30;;
52620;SDS011;38515;53.160;6.990;2023-11-19T12:30:11;111.43;;;102.45;;
52620;SDS011;38515;53.160;6.990;2023-11-19T12:32:42;118.60;;;109.40;;
52620;SDS011;38515;53.160;6.990;2023-11-19T12:35:10;115.95;;;105.93;;
52620;SDS011;38515;53.160;6.990;2023-11-19T12:37:41;118.88;;;109.78;;
52620;SDS011;38515;53.160;6.990;2023-11-19T12:40:12;107.15;;;97.28;;
52620;SDS011;38515;53.160;6.990;2023-11-19T12:42:49;126.25;;;117.53;;
52620;SDS011;38515;53.160;6.990;2023-11-19T12:45:16;126.90;;;118.25;;
52620;SDS011;38515;53.160;6.990;2023-11-19T12:47:44;129.75;;;119.57;;
52620;SDS011;38515;53.160;6.990;2023-11-19T12:50:13;119.65;;;110.65;;
52620;SDS011;38515;53.160;6.990;2023-11-19T12:52:39;121.53;;;112.30;;
52620;SDS011;38515;53.160;6.990;2023-11-19T12:55:05;116.53;;;107.90;;
52620;SDS011;38515;53.160;6.990;2023-11-19T12:57:53;123.22;;;114.63;;
52620;SDS011;38515;53.160;6.990;2023-11-19T13:00:22;126.40;;;118.07;;
52620;SDS011;38515;53.160;6.990;2023-11-19T13:02:50;135.43;;;125.15;;
52620;SDS011;38515;53.160;6.990;2023-11-19T13:07:50;112.15;;;104.93;;
52620;SDS011;38515;53.160;6.990;2023-11-19T13:10:16;109.45;;;101.28;;
52620;SDS011;38515;53.160;6.990;2023-11-19T13:12:42;124.28;;;114.82;;
52620;SDS011;38515;53.160;6.990;2023-11-19T13:15:22;123.85;;;113.65;;
52620;SDS011;38515;53.160;6.990;2023-11-19T13:17:50;106.90;;;98.35;;
52620;SDS011;38515;53.160;6.990;2023-11-19T13:20:16;126.75;;;118.65;;
52620;SDS011;38515;53.160;6.990;2023-11-19T13:22:55;120.18;;;112.50;;
52620;SDS011;38515;53.160;6.990;2023-11-19T13:25:28;108.72;;;101.25;;
52620;SDS011;38515;53.160;6.990;2023-11-19T13:27:55;103.78;;;94.63;;
52620;SDS011;38515;53.160;6.990;2023-11-19T13:30:24;116.28;;;108.75;;
52620;SDS011;38515;53.160;6.990;2023-11-19T13:32:51;129.25;;;120.05;;
52620;SDS011;38515;53.160;6.990;2023-11-19T13:35:17;119.47;;;110.97;;
52620;SDS011;38515;53.160;6.990;2023-11-19T13:37:44;99.68;;;91.32;;
52620;SDS011;38515;53.160;6.990;2023-11-19T13:40:11;117.93;;;108.55;;
52620;SDS011;38515;53.160;6.990;2023-11-19T13:42:41;122.13;;;114.97;;
52620;SDS011;38515;53.160;6.990;2023-11-19T13:45:11;102.97;;;95.80;;
52620;SDS011;38515;53.160;6.990;2023-11-19T13:47:47;78.50;;;73.25;;
52620;SDS011;38515;53.160;6.990;2023-11-19T13:50:13;70.40;;;63.47;;
52620;SDS011;38515;53.160;6.990;2023-11-19T13:52:41;85.43;;;78.97;;
52620;SDS011;38515;53.160;6.990;2023-11-19T13:55:10;90.78;;;83.97;;
52620;SDS011;38515;53.160;6.990;2023-11-19T13:57:37;89.70;;;82.80;;
52620;SDS011;38515;53.160;6.990;2023-11-19T14:00:07;88.47;;;81.75;;
52620;SDS011;38515;53.160;6.990;2023-11-19T14:02:41;93.22;;;86.50;;
52620;SDS011;38515;53.160;6.990;2023-11-19T14:05:14;81.45;;;74.85;;
52620;SDS011;38515;53.160;6.990;2023-11-19T14:07:42;87.15;;;80.63;;
52620;SDS011;38515;53.160;6.990;2023-11-19T14:10:09;93.47;;;86.97;;
52620;SDS011;38515;53.160;6.990;2023-11-19T14:12:39;77.82;;;71.07;;
52620;SDS011;38515;53.160;6.990;2023-11-19T14:15:06;129.02;;;121.40;;
52620;SDS011;38515;53.160;6.990;2023-11-19T14:17:35;140.23;;;131.23;;
52620;SDS011;38515;53.160;6.990;2023-11-19T14:20:01;130.45;;;121.85;;
52620;SDS011;38515;53.160;6.990;2023-11-19T14:22:44;113.35;;;103.32;;
52620;SDS011;38515;53.160;6.990;2023-11-19T14:25:15;135.32;;;125.60;;
52620;SDS011;38515;53.160;6.990;2023-11-19T14:27:42;119.28;;;110.13;;
52620;SDS011;38515;53.160;6.990;2023-11-19T14:30:09;133.50;;;123.80;;